Etusivu
METAR-TAF:

METAR-TAF

Lentoasemat :

Fond Du Lac County Airport

Fond du Lac, Wisconsin, Yhdysvallat

Leveyspiiri: 43-46-12N, Pituuspiiri: 088-29-11W, korkeus merenpinnasta: 246 m

Tämänhetkinen sää

Tämä raportti tehtiin 42 minuuttia sitten, kello 15.53 UTC
Tuuli 8 kn lännestä
Lämpötila 26°C
Kosteus 61%
Ilmanpaine 1011 hPa
Näkyvyys: 16.1 km
selkeää

METAR: KFLD 031553Z AUTO 26008KT 10SM CLR 26/18 A2985 RMK AO2 SLP102 T02560178

Aika: 11:35 (16:35 UTC)


TAF: puuttuu

Säähavainnot ja -ennusteet yli 4000 lentoasemalta (METAR- ja TAF-raportit).

Käytössä olevat sääasemat on merkitty karttaan keltaisilla ja punaisilla pisteillä.

Aseta hiiri pisteen päälle nähdäksesi sääaseman nimen.

Klikkaa sitten nähdäksesi säähavainnot ja -ennusteet.

Kartan vaihtaminen: klikkaa mustalla rastilla varustettuja vihreitä pisteitä, niin voit zoomata sisään; viivalla varustettua vihreää pistettä, niin voit zoomata ulos tai vihreitä nuolia, niin pääset viereisille kartoille.


METAR-TAF: